Johnson Village, Colorado
Current Conditions -  °F | °C
As of 9:14 AM on Thursday 30 Oct 2014 (Local Time) from K7BM Reporting Station
Clear Clear  
Wind Chill: 44°   Ceiling: Unl
Heat Index: 46°   Visibility: 10mi
Dew Point: 12°   Wind: 6mph
Humidity: 25%   Direction: 140°SE
Pressure: 30.49"   Gusts: NA
Location:  38.8913°N, 106.224°W
Report Text: K7BM 301514Z AUTO 14005KT 10SM CLR 08/M11 A3049 RMK AO2
Loading
Personal Weather Stations






























Interactive Weather Map
Tropical Storm Tracking
New forecast layout! Learn more

10-Day Weather Forecast

Advertisements
Track Severe Weather on mobile